Terminal Aerodrome Forecast
Issued by NWS

Home | Current Version | Previous Version | Text Only | Print | Product List | Glossary On
Versions: 1 2 3 4 5 6 7 8 9 10 11 12 13 14 15 16 17 18 19 20 21
000
FTUS41 KRNK 281125
TAFBCB
TAF
KBCB 281125Z 2812/2912 25005KT P6SM SCT030 BKN050
     FM281500 28006KT P6SM -RA OVC040
     FM281900 30005KT 6SM -RA SCT015 OVC035
     FM290300 33005KT 4SM -RADZ SCT003 OVC008=

USA.gov is the U.S. government's official web portal to all federal, state and local government web resources and services.